Chemstar Masa — 3FGM7 — position and weather

sailwx.info

Track history (hours):
 
Tides and Currents Weather Stations Pressure Air Temp Water Temp Dewpoint Dewpoint Depression Visibility Wind Speed Wind Dir Waves Ship Positions

Chemstar Masa

Last reported at 2016-Aug-17 03:07 UTC. Time now 2016-Aug-25 06:12 UTC.
Position N 27°31' W 015°15'.
Warning: this ship's position is 8 days out of date.

Length 141 m; draft 9.9 m.

Type: Ship (hazmat cat B). MMSI: 353456000.

Date/timePositionNaut miles runAvg speedWind from/ knotsBaromVisibWave heightAir tempDewpointWater temp
2016-Aug-17 03:07N 27°31' W 015°15'813.7
2016-Aug-17 02:33N 27°39' W 015°12'1212.3
2016-Aug-17 01:33N 27°51' W 015°15'1313.1
2016-Aug-17 00:34N 28°03' W 015°19'6 6.1
2016-Aug-16 23:31N 28°07' W 015°25'0 0.0
2016-Aug-16 22:31N 28°07' W 015°25'0 0.0
2016-Aug-16 21:31N 28°07' W 015°25'0 0.0
2016-Aug-16 20:31N 28°07' W 015°25'0 0.0
2016-Aug-16 19:33N 28°07' W 015°25'0 0.1
2016-Aug-16 18:33N 28°07' W 015°25'1 1.0
2016-Aug-16 17:33N 28°08' W 015°24'0 0.0
2016-Aug-16 16:33N 28°08' W 015°24'0 0.0
2016-Aug-16 15:33N 28°08' W 015°24'0 0.0
2016-Aug-16 14:33N 28°08' W 015°24'0 0.0
2016-Aug-16 13:33N 28°08' W 015°24'0 0.0
2016-Aug-16 12:33N 28°08' W 015°24'0 0.0
2016-Aug-16 11:33N 28°08' W 015°24'0 0.0
2016-Aug-16 10:33N 28°08' W 015°24'0 0.3
2016-Aug-16 09:33N 28°08' W 015°24'7 7.1
2016-Aug-16 08:33N 28°10' W 015°16'1413.7
2016-Aug-16 07:33N 28°18' W 015°04'4113.6
2016-Aug-16 04:31N 28°49' W 014°32'2713.6
2016-Aug-16 02:33N 29°11' W 014°15'2914.0
2016-Aug-16 00:30N 29°35' W 013°56'58213.3
2016-Aug-14 04:34N 36°02' W 005°18'12712.2
2016-Aug-13 18:13N 36°22' W 002°43'913.4
2016-Aug-13 17:33N 36°23' W 002°32'  
2016-Aug-11 11:33N 37°20' E 011°31'1211.8
2016-Aug-11 10:30N 37°15' E 011°45'1311.7
2016-Aug-11 09:24N 37°09' E 011°59'1012.0
2016-Aug-11 08:33N 37°04' E 012°11'1212.2
2016-Aug-11 07:33N 36°59' E 012°24'1412.9
2016-Aug-11 06:29N 36°53' E 012°40'1213.0
2016-Aug-11 05:32N 36°48' E 012°54'3012.8
2016-Aug-11 03:13N 36°36' E 013°28'1112.7
2016-Aug-11 02:20N 36°32' E 013°41'1012.8
2016-Aug-11 01:33N 36°28' E 013°52'1312.6
2016-Aug-11 00:34N 36°25' E 014°07'1313.1
2016-Aug-10 23:34N 36°24' E 014°23'1313.3
2016-Aug-10 22:34N 36°23' E 014°40'1313.4
2016-Aug-10 21:33N 36°21' E 014°57'46511.9
2016-Aug-09 06:24N 37°39' E 024°30'28512.9
2016-Aug-08 08:21N 40°56' E 028°56'  
Track history (hours):
 
Tides and Currents Weather Stations Pressure Air Temp Water Temp Dewpoint Dewpoint Depression Visibility Wind Speed Wind Dir Waves Ship Positions

Chemstar Masa

Last reported at 2016-Aug-17 03:07 UTC. Time now 2016-Aug-25 06:12 UTC.
Position N 27°31' W 015°15'.
Warning: this ship's position is 8 days out of date.

Length 141 m; draft 9.9 m.

Type: Ship (hazmat cat B). MMSI: 353456000.

Date/timePositionNaut miles runAvg speedWind from/ knotsBaromVisibWave heightAir tempDewpointWater temp
2016-Aug-17 03:07N 27°31' W 015°15'813.7
2016-Aug-17 02:33N 27°39' W 015°12'1212.3
2016-Aug-17 01:33N 27°51' W 015°15'1313.1
2016-Aug-17 00:34N 28°03' W 015°19'6 6.1
2016-Aug-16 23:31N 28°07' W 015°25'0 0.0
2016-Aug-16 22:31N 28°07' W 015°25'0 0.0
2016-Aug-16 21:31N 28°07' W 015°25'0 0.0
2016-Aug-16 20:31N 28°07' W 015°25'0 0.0
2016-Aug-16 19:33N 28°07' W 015°25'0 0.1
2016-Aug-16 18:33N 28°07' W 015°25'1 1.0
2016-Aug-16 17:33N 28°08' W 015°24'0 0.0
2016-Aug-16 16:33N 28°08' W 015°24'0 0.0
2016-Aug-16 15:33N 28°08' W 015°24'0 0.0
2016-Aug-16 14:33N 28°08' W 015°24'0 0.0
2016-Aug-16 13:33N 28°08' W 015°24'0 0.0
2016-Aug-16 12:33N 28°08' W 015°24'0 0.0
2016-Aug-16 11:33N 28°08' W 015°24'0 0.0
2016-Aug-16 10:33N 28°08' W 015°24'0 0.3
2016-Aug-16 09:33N 28°08' W 015°24'7 7.1
2016-Aug-16 08:33N 28°10' W 015°16'1413.7
2016-Aug-16 07:33N 28°18' W 015°04'4113.6
2016-Aug-16 04:31N 28°49' W 014°32'2713.6
2016-Aug-16 02:33N 29°11' W 014°15'2914.0
2016-Aug-16 00:30N 29°35' W 013°56'58213.3
2016-Aug-14 04:34N 36°02' W 005°18'12712.2
2016-Aug-13 18:13N 36°22' W 002°43'913.4
2016-Aug-13 17:33N 36°23' W 002°32'  
2016-Aug-11 11:33N 37°20' E 011°31'1211.8
2016-Aug-11 10:30N 37°15' E 011°45'1311.7
2016-Aug-11 09:24N 37°09' E 011°59'1012.0
2016-Aug-11 08:33N 37°04' E 012°11'1212.2
2016-Aug-11 07:33N 36°59' E 012°24'1412.9
2016-Aug-11 06:29N 36°53' E 012°40'1213.0
2016-Aug-11 05:32N 36°48' E 012°54'3012.8
2016-Aug-11 03:13N 36°36' E 013°28'1112.7
2016-Aug-11 02:20N 36°32' E 013°41'1012.8
2016-Aug-11 01:33N 36°28' E 013°52'1312.6
2016-Aug-11 00:34N 36°25' E 014°07'1313.1
2016-Aug-10 23:34N 36°24' E 014°23'1313.3
2016-Aug-10 22:34N 36°23' E 014°40'1313.4
2016-Aug-10 21:33N 36°21' E 014°57'46511.9
2016-Aug-09 06:24N 37°39' E 024°30'28512.9
2016-Aug-08 08:21N 40°56' E 028°56'  

Dump ship's entire track history